VLG150 LEMH-LEVC

Flight info

Callsign VLG150
Flight time 0h 49m
Altitude 23000
Route EPAMA N733 ARGOR
Aircraft A319/M-SDE3FGHIRWY/LB1

Departure

Time 2026-04-12 09:32
Airport Menorca Airport (LEMH)

Arrival

Time 2026-04-12 10:21
Airport Valencia Airport (LEVC)
Time Latitude Longitude Altitude Speed Heading
2026-04-12 09:14 39.86527 4.22427 287 ft 0 kts 99°
2026-04-12 09:14 39.86527 4.22426 287 ft 0 kts 99°
2026-04-12 09:23 39.86531 4.22396 287 ft 4 kts 105°
2026-04-12 09:24 39.86540 4.22363 291 ft 4 kts 120°
2026-04-12 09:24 39.86556 4.22339 294 ft 4 kts 168°
2026-04-12 09:24 39.86568 4.22338 295 ft 1 kts 188°
2026-04-12 09:26 39.86565 4.22338 295 ft 2 kts 188°
2026-04-12 09:26 39.86528 4.22330 291 ft 8 kts 189°
2026-04-12 09:26 39.86461 4.22317 289 ft 10 kts 188°
2026-04-12 09:27 39.86388 4.22303 289 ft 11 kts 188°
2026-04-12 09:27 39.86311 4.22286 288 ft 11 kts 189°
2026-04-12 09:27 39.86230 4.22267 288 ft 12 kts 191°
2026-04-12 09:27 39.86185 4.22206 290 ft 9 kts 268°
2026-04-12 09:28 39.86191 4.22132 292 ft 7 kts 278°
2026-04-12 09:28 39.86163 4.22084 295 ft 9 kts 195°
2026-04-12 09:28 39.86086 4.22068 295 ft 12 kts 188°
2026-04-12 09:28 39.86009 4.22054 297 ft 11 kts 188°
2026-04-12 09:29 39.85935 4.22040 297 ft 11 kts 188°
2026-04-12 09:29 39.85850 4.22021 295 ft 13 kts 189°
2026-04-12 09:29 39.85749 4.22000 296 ft 16 kts 188°
2026-04-12 09:29 39.85634 4.21976 291 ft 18 kts 189°
2026-04-12 09:30 39.85503 4.21950 291 ft 20 kts 188°
2026-04-12 09:30 39.85360 4.21920 284 ft 22 kts 191°
2026-04-12 09:30 39.85211 4.21887 281 ft 16 kts 189°
2026-04-12 09:30 39.85134 4.21833 283 ft 12 kts 251°
2026-04-12 09:31 39.85140 4.21735 285 ft 10 kts 279°
2026-04-12 09:31 39.85166 4.21660 289 ft 8 kts 320°
2026-04-12 09:31 39.85231 4.21652 286 ft 13 kts
2026-04-12 09:31 39.85466 4.21702 288 ft 73 kts
2026-04-12 09:32 39.86231 4.21853 350 ft 142 kts
2026-04-12 09:32 39.87215 4.22037 1194 ft 147 kts 14°
2026-04-12 09:32 39.88279 4.22259 1965 ft 164 kts 15°
2026-04-12 09:32 39.89479 4.22523 2622 ft 187 kts 15°
2026-04-12 09:33 39.90867 4.22845 3246 ft 217 kts 15°
2026-04-12 09:33 39.91893 4.23074 3753 ft 234 kts 15°
2026-04-12 09:33 39.93577 4.23437 4624 ft 256 kts 14°
2026-04-12 09:33 39.95375 4.23801 5732 ft 265 kts 13°
2026-04-12 09:34 39.97215 4.24088 6956 ft 272 kts
2026-04-12 09:34 39.99080 4.23385 8124 ft 291 kts 333°
2026-04-12 09:34 40.00517 4.21467 9343 ft 305 kts 302°
2026-04-12 09:34 40.01158 4.18818 10431 ft 313 kts 273°
2026-04-12 09:35 40.00878 4.15946 11160 ft 329 kts 249°
2026-04-12 09:35 39.99965 4.13148 11853 ft 342 kts 237°
2026-04-12 09:35 39.98667 4.10520 12844 ft 345 kts 229°
2026-04-12 09:35 39.97125 4.08127 13883 ft 345 kts 221°
2026-04-12 09:36 39.95346 4.06039 14826 ft 344 kts 212°
2026-04-12 09:36 39.93338 4.04352 15747 ft 344 kts 203°
2026-04-12 09:36 39.91142 4.03123 16653 ft 344 kts 194°
2026-04-12 09:36 39.88818 4.02377 17548 ft 345 kts 185°
2026-04-12 09:37 39.86427 4.02126 18365 ft 346 kts 176°
2026-04-12 09:37 39.84028 4.02376 19117 ft 347 kts 167°
2026-04-12 09:37 39.81679 4.03128 19872 ft 349 kts 158°
2026-04-12 09:37 39.79393 4.04259 20607 ft 355 kts 159°
2026-04-12 09:38 39.76941 4.04881 21346 ft 365 kts 173°
2026-04-12 09:38 39.74377 4.04620 22075 ft 377 kts 189°
2026-04-12 09:38 39.71887 4.03400 22636 ft 390 kts 205°
2026-04-12 09:38 39.69727 4.01236 22777 ft 396 kts 224°
2026-04-12 09:39 39.68012 3.98527 22807 ft 378 kts 228°
2026-04-12 09:39 39.66414 3.95914 22801 ft 363 kts 228°
2026-04-12 09:39 39.64844 3.93369 22806 ft 359 kts 228°
2026-04-12 09:39 39.63274 3.90853 22806 ft 358 kts 227°
2026-04-12 09:40 39.61700 3.88349 22803 ft 358 kts 227°
2026-04-12 09:40 39.60121 3.85849 22808 ft 358 kts 227°
2026-04-12 09:40 39.58542 3.83349 22804 ft 359 kts 227°
2026-04-12 09:40 39.56962 3.80843 22801 ft 359 kts 227°
2026-04-12 09:41 39.55380 3.78332 22805 ft 359 kts 227°
2026-04-12 09:41 39.53801 3.75819 22790 ft 360 kts 227°
2026-04-12 09:41 39.52755 3.74155 22795 ft 360 kts 227°
2026-04-12 09:41 39.52659 3.74002 22792 ft 360 kts 227°
2026-04-12 09:42 39.51134 3.71734 22786 ft 359 kts 226°
2026-04-12 09:42 39.49530 3.69252 22787 ft 360 kts 227°
2026-04-12 09:42 39.47957 3.66727 22783 ft 360 kts 228°
2026-04-12 09:43 39.43249 3.59116 22778 ft 361 kts 228°
2026-04-12 09:43 39.41661 3.56590 22777 ft 361 kts 228°
2026-04-12 09:43 39.40072 3.54078 22775 ft 362 kts 227°
2026-04-12 09:44 39.38474 3.51565 22774 ft 362 kts 227°
2026-04-12 09:44 39.36871 3.49049 22769 ft 362 kts 227°
2026-04-12 09:44 39.35384 3.46415 22768 ft 365 kts 238°
2026-04-12 09:44 39.34388 3.43396 22771 ft 368 kts 253°
2026-04-12 09:45 39.33966 3.40134 22769 ft 369 kts 268°
2026-04-12 09:45 39.34146 3.36833 22767 ft 369 kts 281°
2026-04-12 09:45 39.34661 3.33590 22767 ft 369 kts 282°
2026-04-12 09:45 39.35175 3.30341 22769 ft 369 kts 282°
2026-04-12 09:46 39.35682 3.27090 22767 ft 369 kts 282°
2026-04-12 09:46 39.36188 3.23834 22771 ft 369 kts 282°
2026-04-12 09:46 39.36692 3.20582 22773 ft 370 kts 282°
2026-04-12 09:46 39.37190 3.17361 22770 ft 370 kts 282°
2026-04-12 09:47 39.37693 3.14101 22774 ft 370 kts 282°
2026-04-12 09:47 39.38194 3.10840 22774 ft 370 kts 282°
2026-04-12 09:47 39.38691 3.07581 22780 ft 370 kts 282°
2026-04-12 09:47 39.39170 3.04432 22782 ft 369 kts 282°
2026-04-12 09:48 39.39666 3.01176 22788 ft 369 kts 282°
2026-04-12 09:48 39.40163 2.97919 22802 ft 369 kts 282°
2026-04-12 09:48 39.40661 2.94669 22801 ft 369 kts 282°
2026-04-12 09:48 39.41159 2.91422 22805 ft 368 kts 282°
2026-04-12 09:49 39.41654 2.88176 22810 ft 368 kts 282°
2026-04-12 09:49 39.42145 2.84930 22811 ft 367 kts 282°
2026-04-12 09:49 39.42634 2.81691 22811 ft 367 kts 282°
2026-04-12 09:49 39.43107 2.78576 22817 ft 367 kts 282°
2026-04-12 09:50 39.43700 2.75375 22818 ft 365 kts 290°
2026-04-12 09:50 39.44635 2.72327 22822 ft 364 kts 294°
2026-04-12 09:50 39.45604 2.69290 22818 ft 364 kts 293°
2026-04-12 09:50 39.46564 2.66258 22818 ft 364 kts 293°
2026-04-12 09:51 39.47518 2.63233 22819 ft 363 kts 293°
2026-04-12 09:51 39.48473 2.60200 22822 ft 363 kts 293°
2026-04-12 09:51 39.49425 2.57174 22820 ft 363 kts 293°
2026-04-12 09:51 39.50375 2.54149 22817 ft 363 kts 293°
2026-04-12 09:52 39.51327 2.51123 22814 ft 362 kts 293°
2026-04-12 09:52 39.52275 2.48106 22819 ft 362 kts 293°
2026-04-12 09:52 39.53222 2.45082 22812 ft 362 kts 293°
2026-04-12 09:52 39.54155 2.42102 22818 ft 361 kts 292°
2026-04-12 09:53 39.54883 2.38989 22818 ft 362 kts 281°
2026-04-12 09:53 39.55168 2.35755 22814 ft 361 kts 274°
2026-04-12 09:53 39.55354 2.32467 22819 ft 361 kts 274°
2026-04-12 09:53 39.55534 2.29266 22821 ft 361 kts 274°
2026-04-12 09:54 39.55716 2.26023 22828 ft 360 kts 274°
2026-04-12 09:54 39.55897 2.22781 22830 ft 360 kts 274°
2026-04-12 09:54 39.56077 2.19546 22837 ft 360 kts 274°
2026-04-12 09:54 39.56255 2.16313 22831 ft 360 kts 274°
2026-04-12 09:55 39.56431 2.13081 22835 ft 359 kts 274°
2026-04-12 09:55 39.56609 2.09851 22840 ft 359 kts 274°
2026-04-12 09:55 39.56792 2.06589 22846 ft 359 kts 274°
2026-04-12 09:55 39.56972 2.03365 22848 ft 358 kts 274°
2026-04-12 09:56 39.57146 2.00150 22848 ft 358 kts 274°
2026-04-12 09:56 39.57315 1.96936 22851 ft 357 kts 274°
2026-04-12 09:56 39.57481 1.93767 22852 ft 357 kts 274°
2026-04-12 09:56 39.57649 1.90558 22853 ft 356 kts 273°
2026-04-12 09:57 39.57818 1.87359 22853 ft 356 kts 273°
2026-04-12 09:57 39.57952 1.84567 22855 ft 355 kts 273°
2026-04-12 09:57 39.58110 1.81368 22857 ft 355 kts 273°
2026-04-12 09:58 39.58278 1.78183 22858 ft 355 kts 273°
2026-04-12 09:58 39.58451 1.74996 22858 ft 354 kts 273°
2026-04-12 09:58 39.58624 1.71810 22859 ft 354 kts 273°
2026-04-12 09:58 39.58792 1.68628 22859 ft 353 kts 273°
2026-04-12 09:59 39.58957 1.65450 22860 ft 353 kts 272°
2026-04-12 09:59 39.59120 1.62280 22862 ft 353 kts 272°
2026-04-12 09:59 39.59281 1.59109 22866 ft 352 kts 272°
2026-04-12 09:59 39.59440 1.55941 22870 ft 352 kts 272°
2026-04-12 10:00 39.59598 1.52766 22864 ft 352 kts 272°
2026-04-12 10:00 39.59754 1.49610 22858 ft 351 kts 272°
2026-04-12 10:00 39.59908 1.46453 22861 ft 351 kts 272°
2026-04-12 10:00 39.60061 1.43301 22857 ft 350 kts 272°
2026-04-12 10:01 39.60212 1.40145 22859 ft 350 kts 272°
2026-04-12 10:01 39.60260 1.36999 22860 ft 348 kts 264°
2026-04-12 10:01 39.60080 1.33869 22864 ft 348 kts 264°
2026-04-12 10:01 39.59903 1.30741 22867 ft 348 kts 264°
2026-04-12 10:02 39.59727 1.27612 22859 ft 348 kts 264°
2026-04-12 10:02 39.59554 1.24484 22869 ft 348 kts 264°
2026-04-12 10:02 39.59381 1.21357 22872 ft 348 kts 264°
2026-04-12 10:02 39.59207 1.18225 22877 ft 349 kts 264°
2026-04-12 10:03 39.59032 1.15093 22873 ft 347 kts 264°
2026-04-12 10:03 39.58856 1.11982 22869 ft 346 kts 264°
2026-04-12 10:03 39.58676 1.08851 22758 ft 352 kts 263°
2026-04-12 10:03 39.58491 1.05674 22489 ft 354 kts 264°
2026-04-12 10:04 39.58306 1.02500 22216 ft 353 kts 264°
2026-04-12 10:04 39.58122 0.99333 21961 ft 351 kts 264°
2026-04-12 10:04 39.57938 0.96183 21704 ft 350 kts 264°
2026-04-12 10:04 39.57764 0.93204 21460 ft 348 kts 264°
2026-04-12 10:05 39.57581 0.90087 21199 ft 346 kts 264°
2026-04-12 10:05 39.57399 0.87003 20828 ft 341 kts 264°
2026-04-12 10:05 39.57219 0.83942 20353 ft 340 kts 264°
2026-04-12 10:05 39.57041 0.80894 19882 ft 339 kts 264°
2026-04-12 10:06 39.56860 0.77850 19408 ft 338 kts 264°
2026-04-12 10:06 39.56677 0.74819 18949 ft 337 kts 264°
2026-04-12 10:06 39.56493 0.71791 18480 ft 337 kts 264°
2026-04-12 10:06 39.56306 0.68769 17998 ft 336 kts 264°
2026-04-12 10:07 39.56119 0.65756 17509 ft 334 kts 264°
2026-04-12 10:07 39.55934 0.62760 17062 ft 332 kts 264°
2026-04-12 10:07 39.55752 0.59793 16619 ft 330 kts 264°
2026-04-12 10:07 39.55571 0.56837 16179 ft 328 kts 264°
2026-04-12 10:08 39.55390 0.53897 15746 ft 327 kts 264°
2026-04-12 10:08 39.55207 0.50963 15317 ft 326 kts 264°
2026-04-12 10:08 39.55023 0.48034 14882 ft 325 kts 263°
2026-04-12 10:08 39.54838 0.45114 14463 ft 325 kts 264°
2026-04-12 10:09 39.54651 0.42196 14031 ft 325 kts 264°
2026-04-12 10:09 39.54464 0.39276 13599 ft 325 kts 264°
2026-04-12 10:09 39.54277 0.36364 13141 ft 324 kts 264°
2026-04-12 10:09 39.54091 0.33467 12706 ft 322 kts 264°
2026-04-12 10:10 39.53878 0.30593 12273 ft 319 kts 259°
2026-04-12 10:10 39.53282 0.27844 11842 ft 316 kts 248°
2026-04-12 10:10 39.52509 0.25184 11412 ft 314 kts 248°
2026-04-12 10:10 39.51745 0.22533 10958 ft 313 kts 249°
2026-04-12 10:11 39.50988 0.19893 10530 ft 312 kts 249°
2026-04-12 10:11 39.50233 0.17263 10086 ft 311 kts 249°
2026-04-12 10:11 39.49509 0.14758 9679 ft 308 kts 249°
2026-04-12 10:11 39.48759 0.12170 9240 ft 306 kts 249°
2026-04-12 10:12 39.48013 0.09598 8737 ft 305 kts 249°
2026-04-12 10:12 39.47523 0.07904 8462 ft 302 kts 249°
2026-04-12 10:12 39.46789 0.05367 7996 ft 300 kts 249°
2026-04-12 10:12 39.46057 0.02847 7530 ft 297 kts 249°
2026-04-12 10:13 39.45330 0.00347 7051 ft 295 kts 249°
2026-04-12 10:13 39.44605 -0.02142 6590 ft 293 kts 249°
2026-04-12 10:13 39.43890 -0.04601 5982 ft 288 kts 249°
2026-04-12 10:13 39.43202 -0.06967 5503 ft 274 kts 250°
2026-04-12 10:14 39.42545 -0.09223 5028 ft 265 kts 249°
2026-04-12 10:14 39.41895 -0.11451 4544 ft 266 kts 250°
2026-04-12 10:14 39.41256 -0.13645 4340 ft 249 kts 250°
2026-04-12 10:14 39.40675 -0.15631 4283 ft 224 kts 250°
2026-04-12 10:15 39.40146 -0.17435 4218 ft 206 kts 250°
2026-04-12 10:15 39.39591 -0.19091 4138 ft 201 kts 245°
2026-04-12 10:15 39.39173 -0.20817 4049 ft 203 kts 265°
2026-04-12 10:15 39.39249 -0.22604 3956 ft 195 kts 287°
2026-04-12 10:16 39.39746 -0.24159 3922 ft 179 kts 300°
2026-04-12 10:16 39.40286 -0.25568 3753 ft 172 kts 300°
2026-04-12 10:16 39.40814 -0.26943 3544 ft 169 kts 300°
2026-04-12 10:16 39.41335 -0.28301 3330 ft 168 kts 301°
2026-04-12 10:17 39.41851 -0.29646 3124 ft 166 kts 301°
2026-04-12 10:17 39.42361 -0.30974 2894 ft 164 kts 302°
2026-04-12 10:17 39.42862 -0.32284 2680 ft 159 kts 302°
2026-04-12 10:17 39.43330 -0.33510 2484 ft 145 kts 303°
2026-04-12 10:18 39.43767 -0.34643 2247 ft 137 kts 303°
2026-04-12 10:18 39.44182 -0.35728 2024 ft 133 kts 302°
2026-04-12 10:18 39.44590 -0.36786 1838 ft 131 kts 302°
2026-04-12 10:18 39.44987 -0.37836 1690 ft 130 kts 302°
2026-04-12 10:19 39.45384 -0.38879 1542 ft 128 kts 302°
2026-04-12 10:19 39.45783 -0.39909 1395 ft 127 kts 302°
2026-04-12 10:19 39.46173 -0.40934 1233 ft 126 kts 302°
2026-04-12 10:19 39.46562 -0.41944 1070 ft 125 kts 300°
2026-04-12 10:20 39.46941 -0.42940 923 ft 121 kts 299°
2026-04-12 10:20 39.47309 -0.43909 740 ft 119 kts 299°
2026-04-12 10:20 39.47670 -0.44857 579 ft 116 kts 298°
2026-04-12 10:20 39.48024 -0.45790 417 ft 115 kts 298°
2026-04-12 10:21 39.48378 -0.46714 275 ft 114 kts 298°
2026-04-12 10:21 39.48719 -0.47602 212 ft 95 kts 296°
2026-04-12 10:21 39.48910 -0.48102 216 ft 21 kts 298°
2026-04-12 10:21 39.48979 -0.48115 210 ft 7 kts 51°
2026-04-12 10:22 39.48995 -0.48056 216 ft 7 kts 78°
2026-04-12 10:22 39.49004 -0.47987 210 ft 8 kts 79°
2026-04-12 10:22 39.49016 -0.47910 210 ft 9 kts 76°
2026-04-12 10:22 39.49033 -0.47827 210 ft 10 kts 75°
2026-04-12 10:23 39.49049 -0.47741 209 ft 10 kts 77°
2026-04-12 10:23 39.49061 -0.47665 209 ft 9 kts 85°
2026-04-12 10:23 39.49043 -0.47591 213 ft 9 kts 114°
2026-04-12 10:23 39.49065 -0.47529 213 ft 8 kts 43°
2026-04-12 10:24 39.49096 -0.47489 209 ft 3 kts 45°
2026-04-12 10:24 39.49099 -0.47485 209 ft 0 kts 45°